sensor_id;sensor_type;location;lat;lon;timestamp;pressure;altitude;pressure_sealevel;temperature
12007;BMP180;6062;47.294;12.182;2022-12-16T00:02:01;78517.00;;;6.60
12007;BMP180;6062;47.294;12.182;2022-12-16T00:04:27;78519.00;;;6.60
12007;BMP180;6062;47.294;12.182;2022-12-16T00:06:53;78517.00;;;6.60
12007;BMP180;6062;47.294;12.182;2022-12-16T00:09:18;78513.00;;;6.60
12007;BMP180;6062;47.294;12.182;2022-12-16T00:11:45;78521.00;;;6.60
12007;BMP180;6062;47.294;12.182;2022-12-16T00:14:10;78504.00;;;6.60
12007;BMP180;6062;47.294;12.182;2022-12-16T00:16:36;78504.00;;;6.60
12007;BMP180;6062;47.294;12.182;2022-12-16T00:19:02;78503.00;;;6.60
12007;BMP180;6062;47.294;12.182;2022-12-16T00:21:28;78506.00;;;6.60
12007;BMP180;6062;47.294;12.182;2022-12-16T00:23:55;78501.00;;;6.60
12007;BMP180;6062;47.294;12.182;2022-12-16T00:26:22;78495.00;;;6.60
12007;BMP180;6062;47.294;12.182;2022-12-16T00:28:48;78499.00;;;6.60
12007;BMP180;6062;47.294;12.182;2022-12-16T00:31:14;78500.00;;;6.60
12007;BMP180;6062;47.294;12.182;2022-12-16T00:33:39;78495.00;;;6.60
12007;BMP180;6062;47.294;12.182;2022-12-16T00:36:06;78502.00;;;6.50
12007;BMP180;6062;47.294;12.182;2022-12-16T00:38:32;78486.00;;;6.50
12007;BMP180;6062;47.294;12.182;2022-12-16T00:40:58;78496.00;;;6.50
12007;BMP180;6062;47.294;12.182;2022-12-16T00:43:24;78503.00;;;6.50
12007;BMP180;6062;47.294;12.182;2022-12-16T00:45:49;78507.00;;;6.40
12007;BMP180;6062;47.294;12.182;2022-12-16T00:48:16;78509.00;;;6.40
12007;BMP180;6062;47.294;12.182;2022-12-16T00:50:48;78507.00;;;6.40
12007;BMP180;6062;47.294;12.182;2022-12-16T00:53:14;78512.00;;;6.40
12007;BMP180;6062;47.294;12.182;2022-12-16T00:55:41;78516.00;;;6.40
12007;BMP180;6062;47.294;12.182;2022-12-16T00:58:07;78524.00;;;6.40
12007;BMP180;6062;47.294;12.182;2022-12-16T01:00:32;78517.00;;;6.40
12007;BMP180;6062;47.294;12.182;2022-12-16T01:02:58;78523.00;;;6.40
12007;BMP180;6062;47.294;12.182;2022-12-16T01:05:24;78520.00;;;6.40
12007;BMP180;6062;47.294;12.182;2022-12-16T01:07:52;78517.00;;;6.40
12007;BMP180;6062;47.294;12.182;2022-12-16T01:10:19;78513.00;;;6.40
12007;BMP180;6062;47.294;12.182;2022-12-16T01:12:45;78509.00;;;6.40
12007;BMP180;6062;47.294;12.182;2022-12-16T01:15:11;78523.00;;;6.40
12007;BMP180;6062;47.294;12.182;2022-12-16T01:17:38;78519.00;;;6.30
12007;BMP180;6062;47.294;12.182;2022-12-16T01:20:04;78520.00;;;6.40
12007;BMP180;6062;47.294;12.182;2022-12-16T01:22:32;78517.00;;;6.40
12007;BMP180;6062;47.294;12.182;2022-12-16T01:24:59;78524.00;;;6.40
12007;BMP180;6062;47.294;12.182;2022-12-16T01:27:26;78517.00;;;6.40
12007;BMP180;6062;47.294;12.182;2022-12-16T01:29:52;78521.00;;;6.40
12007;BMP180;6062;47.294;12.182;2022-12-16T01:32:18;78532.00;;;6.40
12007;BMP180;6062;47.294;12.182;2022-12-16T01:34:49;78516.00;;;6.40
12007;BMP180;6062;47.294;12.182;2022-12-16T01:37:15;78521.00;;;6.40
12007;BMP180;6062;47.294;12.182;2022-12-16T01:39:41;78531.00;;;6.40
12007;BMP180;6062;47.294;12.182;2022-12-16T01:42:15;78532.00;;;6.50
12007;BMP180;6062;47.294;12.182;2022-12-16T01:44:44;78541.00;;;6.50
12007;BMP180;6062;47.294;12.182;2022-12-16T01:47:29;78542.00;;;6.40
12007;BMP180;6062;47.294;12.182;2022-12-16T01:50:10;78544.00;;;6.30
12007;BMP180;6062;47.294;12.182;2022-12-16T01:52:42;78544.00;;;6.20
12007;BMP180;6062;47.294;12.182;2022-12-16T01:55:21;78532.00;;;6.20
12007;BMP180;6062;47.294;12.182;2022-12-16T01:57:55;78542.00;;;6.20
12007;BMP180;6062;47.294;12.182;2022-12-16T02:00:22;78547.00;;;6.10
12007;BMP180;6062;47.294;12.182;2022-12-16T02:02:49;78561.00;;;6.10
12007;BMP180;6062;47.294;12.182;2022-12-16T02:05:16;78555.00;;;6.10
12007;BMP180;6062;47.294;12.182;2022-12-16T02:13:43;78562.00;;;5.90
12007;BMP180;6062;47.294;12.182;2022-12-16T02:16:31;78566.00;;;5.80
12007;BMP180;6062;47.294;12.182;2022-12-16T02:19:46;78574.00;;;5.70
12007;BMP180;6062;47.294;12.182;2022-12-16T02:34:31;78556.00;;;5.10
12007;BMP180;6062;47.294;12.182;2022-12-16T02:40:22;78561.00;;;5.00
12007;BMP180;6062;47.294;12.182;2022-12-16T02:43:03;78563.00;;;5.00
12007;BMP180;6062;47.294;12.182;2022-12-16T02:45:32;78562.00;;;5.00
12007;BMP180;6062;47.294;12.182;2022-12-16T02:47:58;78553.00;;;5.10
12007;BMP180;6062;47.294;12.182;2022-12-16T02:50:45;78560.00;;;5.20
12007;BMP180;6062;47.294;12.182;2022-12-16T02:53:12;78569.00;;;5.20
12007;BMP180;6062;47.294;12.182;2022-12-16T02:56:20;78573.00;;;5.30
12007;BMP180;6062;47.294;12.182;2022-12-16T03:02:18;78575.00;;;5.30
12007;BMP180;6062;47.294;12.182;2022-12-16T03:04:55;78577.00;;;5.30
12007;BMP180;6062;47.294;12.182;2022-12-16T03:07:25;78578.00;;;5.30
12007;BMP180;6062;47.294;12.182;2022-12-16T03:09:55;78587.00;;;5.30
12007;BMP180;6062;47.294;12.182;2022-12-16T03:12:23;78580.00;;;5.30
12007;BMP180;6062;47.294;12.182;2022-12-16T03:14:52;78576.00;;;5.30
12007;BMP180;6062;47.294;12.182;2022-12-16T03:17:23;78568.00;;;5.30
12007;BMP180;6062;47.294;12.182;2022-12-16T03:20:02;78573.00;;;5.30
12007;BMP180;6062;47.294;12.182;2022-12-16T03:22:35;78576.00;;;5.20
12007;BMP180;6062;47.294;12.182;2022-12-16T03:25:04;78559.00;;;5.20
12007;BMP180;6062;47.294;12.182;2022-12-16T03:30:43;78574.00;;;5.10
12007;BMP180;6062;47.294;12.182;2022-12-16T03:33:27;78575.00;;;5.00
12007;BMP180;6062;47.294;12.182;2022-12-16T03:36:03;78558.00;;;4.90
12007;BMP180;6062;47.294;12.182;2022-12-16T03:38:33;78577.00;;;4.80
12007;BMP180;6062;47.294;12.182;2022-12-16T03:41:01;78573.00;;;4.80
12007;BMP180;6062;47.294;12.182;2022-12-16T03:43:29;78576.00;;;4.80
12007;BMP180;6062;47.294;12.182;2022-12-16T03:46:02;78577.00;;;4.80
12007;BMP180;6062;47.294;12.182;2022-12-16T03:48:28;78588.00;;;4.80
12007;BMP180;6062;47.294;12.182;2022-12-16T03:50:55;78592.00;;;4.70
12007;BMP180;6062;47.294;12.182;2022-12-16T03:53:21;78599.00;;;4.60
12007;BMP180;6062;47.294;12.182;2022-12-16T03:55:51;78603.00;;;4.60
12007;BMP180;6062;47.294;12.182;2022-12-16T03:58:17;78605.00;;;4.50
12007;BMP180;6062;47.294;12.182;2022-12-16T04:00:42;78600.00;;;4.50
12007;BMP180;6062;47.294;12.182;2022-12-16T04:03:08;78592.00;;;4.50
12007;BMP180;6062;47.294;12.182;2022-12-16T04:05:34;78587.00;;;4.50
12007;BMP180;6062;47.294;12.182;2022-12-16T04:08:00;78595.00;;;4.50
12007;BMP180;6062;47.294;12.182;2022-12-16T04:10:25;78593.00;;;4.50
12007;BMP180;6062;47.294;12.182;2022-12-16T04:13:10;78593.00;;;4.50
12007;BMP180;6062;47.294;12.182;2022-12-16T04:15:54;78597.00;;;4.50
12007;BMP180;6062;47.294;12.182;2022-12-16T04:18:40;78601.00;;;4.50
12007;BMP180;6062;47.294;12.182;2022-12-16T04:21:25;78604.00;;;4.50
12007;BMP180;6062;47.294;12.182;2022-12-16T04:24:15;78601.00;;;4.50
12007;BMP180;6062;47.294;12.182;2022-12-16T04:26:48;78604.00;;;4.50
12007;BMP180;6062;47.294;12.182;2022-12-16T04:29:33;78615.00;;;4.60
12007;BMP180;6062;47.294;12.182;2022-12-16T04:31:59;78598.00;;;4.60
12007;BMP180;6062;47.294;12.182;2022-12-16T04:34:25;78608.00;;;4.60
12007;BMP180;6062;47.294;12.182;2022-12-16T04:36:58;78625.00;;;4.60
12007;BMP180;6062;47.294;12.182;2022-12-16T04:39:44;78616.00;;;4.50
12007;BMP180;6062;47.294;12.182;2022-12-16T04:42:29;78624.00;;;4.50
12007;BMP180;6062;47.294;12.182;2022-12-16T04:45:14;78626.00;;;4.50
12007;BMP180;6062;47.294;12.182;2022-12-16T04:47:59;78631.00;;;4.40
12007;BMP180;6062;47.294;12.182;2022-12-16T04:50:44;78633.00;;;4.40
12007;BMP180;6062;47.294;12.182;2022-12-16T04:53:28;78633.00;;;4.40
12007;BMP180;6062;47.294;12.182;2022-12-16T04:56:13;78624.00;;;4.40
12007;BMP180;6062;47.294;12.182;2022-12-16T04:58:58;78632.00;;;4.40
12007;BMP180;6062;47.294;12.182;2022-12-16T05:01:42;78631.00;;;4.40
12007;BMP180;6062;47.294;12.182;2022-12-16T05:04:26;78637.00;;;4.40
12007;BMP180;6062;47.294;12.182;2022-12-16T05:07:11;78641.00;;;4.40
12007;BMP180;6062;47.294;12.182;2022-12-16T05:09:55;78636.00;;;4.50
12007;BMP180;6062;47.294;12.182;2022-12-16T05:12:39;78639.00;;;4.40
12007;BMP180;6062;47.294;12.182;2022-12-16T05:15:40;78648.00;;;4.50
12007;BMP180;6062;47.294;12.182;2022-12-16T05:18:24;78649.00;;;4.50
12007;BMP180;6062;47.294;12.182;2022-12-16T05:21:08;78651.00;;;4.50
12007;BMP180;6062;47.294;12.182;2022-12-16T05:23:52;78655.00;;;4.60
12007;BMP180;6062;47.294;12.182;2022-12-16T05:26:36;78655.00;;;4.60
12007;BMP180;6062;47.294;12.182;2022-12-16T05:29:20;78648.00;;;4.60
12007;BMP180;6062;47.294;12.182;2022-12-16T05:32:04;78655.00;;;4.60
12007;BMP180;6062;47.294;12.182;2022-12-16T05:34:48;78657.00;;;4.60
12007;BMP180;6062;47.294;12.182;2022-12-16T05:37:33;78655.00;;;4.60
12007;BMP180;6062;47.294;12.182;2022-12-16T05:40:17;78654.00;;;4.60
12007;BMP180;6062;47.294;12.182;2022-12-16T05:43:01;78659.00;;;4.60
12007;BMP180;6062;47.294;12.182;2022-12-16T05:45:45;78657.00;;;4.60
12007;BMP180;6062;47.294;12.182;2022-12-16T05:48:29;78655.00;;;4.60
12007;BMP180;6062;47.294;12.182;2022-12-16T05:51:13;78651.00;;;4.60
12007;BMP180;6062;47.294;12.182;2022-12-16T05:53:57;78654.00;;;4.70
12007;BMP180;6062;47.294;12.182;2022-12-16T05:56:41;78666.00;;;4.70
12007;BMP180;6062;47.294;12.182;2022-12-16T05:59:25;78670.00;;;4.70
12007;BMP180;6062;47.294;12.182;2022-12-16T06:02:09;78671.00;;;4.70
12007;BMP180;6062;47.294;12.182;2022-12-16T06:04:53;78679.00;;;4.70
12007;BMP180;6062;47.294;12.182;2022-12-16T06:07:37;78674.00;;;4.70
12007;BMP180;6062;47.294;12.182;2022-12-16T06:10:21;78683.00;;;4.70
12007;BMP180;6062;47.294;12.182;2022-12-16T06:13:05;78676.00;;;4.70
12007;BMP180;6062;47.294;12.182;2022-12-16T06:15:49;78682.00;;;4.60
12007;BMP180;6062;47.294;12.182;2022-12-16T06:18:33;78679.00;;;4.60
12007;BMP180;6062;47.294;12.182;2022-12-16T06:21:17;78673.00;;;4.60
12007;BMP180;6062;47.294;12.182;2022-12-16T06:24:01;78689.00;;;4.60
12007;BMP180;6062;47.294;12.182;2022-12-16T06:26:46;78684.00;;;4.60
12007;BMP180;6062;47.294;12.182;2022-12-16T06:29:30;78687.00;;;4.60
12007;BMP180;6062;47.294;12.182;2022-12-16T06:32:14;78690.00;;;4.60
12007;BMP180;6062;47.294;12.182;2022-12-16T06:35:06;78703.00;;;4.60
12007;BMP180;6062;47.294;12.182;2022-12-16T06:37:50;78704.00;;;4.60
12007;BMP180;6062;47.294;12.182;2022-12-16T06:40:34;78708.00;;;4.50
12007;BMP180;6062;47.294;12.182;2022-12-16T06:43:18;78714.00;;;4.60
12007;BMP180;6062;47.294;12.182;2022-12-16T06:46:02;78712.00;;;4.60
12007;BMP180;6062;47.294;12.182;2022-12-16T06:48:46;78716.00;;;4.60
12007;BMP180;6062;47.294;12.182;2022-12-16T06:51:29;78713.00;;;4.60
12007;BMP180;6062;47.294;12.182;2022-12-16T06:54:13;78726.00;;;4.60
12007;BMP180;6062;47.294;12.182;2022-12-16T06:56:58;78719.00;;;4.60
12007;BMP180;6062;47.294;12.182;2022-12-16T06:59:42;78725.00;;;4.60
12007;BMP180;6062;47.294;12.182;2022-12-16T07:02:26;78726.00;;;4.60
12007;BMP180;6062;47.294;12.182;2022-12-16T07:05:10;78725.00;;;4.60
12007;BMP180;6062;47.294;12.182;2022-12-16T07:07:54;78743.00;;;4.60
12007;BMP180;6062;47.294;12.182;2022-12-16T07:10:38;78739.00;;;4.70
12007;BMP180;6062;47.294;12.182;2022-12-16T07:13:22;78737.00;;;4.70
12007;BMP180;6062;47.294;12.182;2022-12-16T07:16:06;78746.00;;;4.60
12007;BMP180;6062;47.294;12.182;2022-12-16T07:18:50;78741.00;;;4.60
12007;BMP180;6062;47.294;12.182;2022-12-16T07:21:36;78751.00;;;4.60
12007;BMP180;6062;47.294;12.182;2022-12-16T07:24:20;78752.00;;;4.60
12007;BMP180;6062;47.294;12.182;2022-12-16T07:27:04;78747.00;;;4.60
12007;BMP180;6062;47.294;12.182;2022-12-16T07:29:48;78760.00;;;4.60
12007;BMP180;6062;47.294;12.182;2022-12-16T07:32:32;78754.00;;;4.60
12007;BMP180;6062;47.294;12.182;2022-12-16T07:35:16;78753.00;;;4.50
12007;BMP180;6062;47.294;12.182;2022-12-16T07:38:00;78761.00;;;4.50
12007;BMP180;6062;47.294;12.182;2022-12-16T07:40:46;78767.00;;;4.50
12007;BMP180;6062;47.294;12.182;2022-12-16T07:43:31;78773.00;;;4.60
12007;BMP180;6062;47.294;12.182;2022-12-16T07:46:15;78762.00;;;4.60
12007;BMP180;6062;47.294;12.182;2022-12-16T07:48:59;78770.00;;;4.60
12007;BMP180;6062;47.294;12.182;2022-12-16T07:51:43;78774.00;;;4.70
12007;BMP180;6062;47.294;12.182;2022-12-16T07:54:27;78794.00;;;4.70
12007;BMP180;6062;47.294;12.182;2022-12-16T07:57:11;78789.00;;;4.70
12007;BMP180;6062;47.294;12.182;2022-12-16T07:59:55;78796.00;;;4.80
12007;BMP180;6062;47.294;12.182;2022-12-16T08:02:39;78800.00;;;4.90
12007;BMP180;6062;47.294;12.182;2022-12-16T08:05:24;78807.00;;;4.90
12007;BMP180;6062;47.294;12.182;2022-12-16T08:08:08;78813.00;;;5.00
12007;BMP180;6062;47.294;12.182;2022-12-16T08:10:52;78814.00;;;5.10
12007;BMP180;6062;47.294;12.182;2022-12-16T08:13:36;78815.00;;;5.10
12007;BMP180;6062;47.294;12.182;2022-12-16T08:16:19;78825.00;;;5.10
12007;BMP180;6062;47.294;12.182;2022-12-16T08:19:05;78818.00;;;5.20
12007;BMP180;6062;47.294;12.182;2022-12-16T08:21:50;78818.00;;;5.20
12007;BMP180;6062;47.294;12.182;2022-12-16T08:24:34;78830.00;;;5.30
12007;BMP180;6062;47.294;12.182;2022-12-16T08:27:18;78826.00;;;5.30
12007;BMP180;6062;47.294;12.182;2022-12-16T08:30:02;78828.00;;;5.30
12007;BMP180;6062;47.294;12.182;2022-12-16T08:32:46;78831.00;;;5.30
12007;BMP180;6062;47.294;12.182;2022-12-16T08:35:30;78838.00;;;5.30
12007;BMP180;6062;47.294;12.182;2022-12-16T08:38:14;78850.00;;;5.30
12007;BMP180;6062;47.294;12.182;2022-12-16T08:40:58;78849.00;;;5.30
12007;BMP180;6062;47.294;12.182;2022-12-16T08:43:42;78848.00;;;5.30
12007;BMP180;6062;47.294;12.182;2022-12-16T08:46:26;78855.00;;;5.30
12007;BMP180;6062;47.294;12.182;2022-12-16T08:49:10;78847.00;;;5.30
12007;BMP180;6062;47.294;12.182;2022-12-16T08:51:54;78863.00;;;5.30
12007;BMP180;6062;47.294;12.182;2022-12-16T08:54:38;78860.00;;;5.40
12007;BMP180;6062;47.294;12.182;2022-12-16T08:57:22;78860.00;;;5.30
12007;BMP180;6062;47.294;12.182;2022-12-16T09:00:07;78870.00;;;5.20
12007;BMP180;6062;47.294;12.182;2022-12-16T09:02:57;78877.00;;;5.10
12007;BMP180;6062;47.294;12.182;2022-12-16T09:05:41;78881.00;;;5.20
12007;BMP180;6062;47.294;12.182;2022-12-16T09:08:26;78884.00;;;5.30
12007;BMP180;6062;47.294;12.182;2022-12-16T09:11:10;78888.00;;;5.40
12007;BMP180;6062;47.294;12.182;2022-12-16T09:13:54;78882.00;;;5.50
12007;BMP180;6062;47.294;12.182;2022-12-16T09:16:38;78899.00;;;5.60
12007;BMP180;6062;47.294;12.182;2022-12-16T09:19:22;78897.00;;;5.60
12007;BMP180;6062;47.294;12.182;2022-12-16T09:22:06;78896.00;;;5.60
12007;BMP180;6062;47.294;12.182;2022-12-16T09:24:50;78904.00;;;5.70
12007;BMP180;6062;47.294;12.182;2022-12-16T09:27:34;78896.00;;;5.70
12007;BMP180;6062;47.294;12.182;2022-12-16T09:30:18;78895.00;;;5.80
12007;BMP180;6062;47.294;12.182;2022-12-16T09:33:02;78900.00;;;5.90
12007;BMP180;6062;47.294;12.182;2022-12-16T09:35:47;78902.00;;;6.00
12007;BMP180;6062;47.294;12.182;2022-12-16T09:38:31;78907.00;;;6.10
12007;BMP180;6062;47.294;12.182;2022-12-16T09:41:38;78897.00;;;6.10
12007;BMP180;6062;47.294;12.182;2022-12-16T09:44:39;78899.00;;;6.20
12007;BMP180;6062;47.294;12.182;2022-12-16T09:47:44;78901.00;;;6.30
12007;BMP180;6062;47.294;12.182;2022-12-16T09:50:38;78902.00;;;6.30
12007;BMP180;6062;47.294;12.182;2022-12-16T09:53:25;78898.00;;;6.30
12007;BMP180;6062;47.294;12.182;2022-12-16T09:56:20;78906.00;;;6.40
12007;BMP180;6062;47.294;12.182;2022-12-16T09:59:12;78904.00;;;6.50
12007;BMP180;6062;47.294;12.182;2022-12-16T10:01:57;78911.00;;;6.50
12007;BMP180;6062;47.294;12.182;2022-12-16T10:04:46;78911.00;;;6.60
12007;BMP180;6062;47.294;12.182;2022-12-16T10:07:42;78916.00;;;6.70
12007;BMP180;6062;47.294;12.182;2022-12-16T10:13:47;78909.00;;;7.00
12007;BMP180;6062;47.294;12.182;2022-12-16T10:20:09;78923.00;;;7.20
12007;BMP180;6062;47.294;12.182;2022-12-16T10:23:12;78919.00;;;7.10
12007;BMP180;6062;47.294;12.182;2022-12-16T10:26:16;78924.00;;;6.80
12007;BMP180;6062;47.294;12.182;2022-12-16T10:29:26;78933.00;;;6.40
12007;BMP180;6062;47.294;12.182;2022-12-16T10:32:45;78929.00;;;5.90
12007;BMP180;6062;47.294;12.182;2022-12-16T10:35:48;78924.00;;;5.50
12007;BMP180;6062;47.294;12.182;2022-12-16T10:38:43;78924.00;;;5.30
12007;BMP180;6062;47.294;12.182;2022-12-16T10:41:36;78921.00;;;5.20
12007;BMP180;6062;47.294;12.182;2022-12-16T10:44:54;78924.00;;;5.20
12007;BMP180;6062;47.294;12.182;2022-12-16T10:47:40;78925.00;;;5.20
12007;BMP180;6062;47.294;12.182;2022-12-16T10:50:25;78931.00;;;5.30
12007;BMP180;6062;47.294;12.182;2022-12-16T10:53:18;78930.00;;;5.30
12007;BMP180;6062;47.294;12.182;2022-12-16T10:59:07;78927.00;;;5.20
12007;BMP180;6062;47.294;12.182;2022-12-16T11:02:01;78930.00;;;4.90
12007;BMP180;6062;47.294;12.182;2022-12-16T11:04:47;78925.00;;;4.70
12007;BMP180;6062;47.294;12.182;2022-12-16T11:10:42;78938.00;;;4.00
12007;BMP180;6062;47.294;12.182;2022-12-16T11:13:35;78932.00;;;3.90
12007;BMP180;6062;47.294;12.182;2022-12-16T11:16:25;78940.00;;;3.70
12007;BMP180;6062;47.294;12.182;2022-12-16T11:19:28;78939.00;;;3.80
12007;BMP180;6062;47.294;12.182;2022-12-16T11:22:20;78940.00;;;3.90
12007;BMP180;6062;47.294;12.182;2022-12-16T11:25:19;78937.00;;;4.00
12007;BMP180;6062;47.294;12.182;2022-12-16T11:28:16;78945.00;;;4.20
12007;BMP180;6062;47.294;12.182;2022-12-16T11:31:12;78939.00;;;4.40
12007;BMP180;6062;47.294;12.182;2022-12-16T11:33:59;78939.00;;;4.60
12007;BMP180;6062;47.294;12.182;2022-12-16T11:36:47;78937.00;;;4.70
12007;BMP180;6062;47.294;12.182;2022-12-16T11:39:35;78939.00;;;4.90
12007;BMP180;6062;47.294;12.182;2022-12-16T11:42:25;78944.00;;;5.00
12007;BMP180;6062;47.294;12.182;2022-12-16T11:45:18;78950.00;;;5.10
12007;BMP180;6062;47.294;12.182;2022-12-16T11:48:43;78957.00;;;5.00
12007;BMP180;6062;47.294;12.182;2022-12-16T11:51:32;78953.00;;;4.90
12007;BMP180;6062;47.294;12.182;2022-12-16T11:54:29;78949.00;;;5.00
12007;BMP180;6062;47.294;12.182;2022-12-16T11:57:23;78955.00;;;5.00
12007;BMP180;6062;47.294;12.182;2022-12-16T12:00:18;78947.00;;;5.10
12007;BMP180;6062;47.294;12.182;2022-12-16T12:03:11;78941.00;;;5.20
12007;BMP180;6062;47.294;12.182;2022-12-16T12:09:21;78954.00;;;5.30
12007;BMP180;6062;47.294;12.182;2022-12-16T12:12:22;78956.00;;;5.30
12007;BMP180;6062;47.294;12.182;2022-12-16T12:15:41;78961.00;;;5.30
12007;BMP180;6062;47.294;12.182;2022-12-16T12:18:39;78964.00;;;5.30
12007;BMP180;6062;47.294;12.182;2022-12-16T12:21:31;78958.00;;;5.30
12007;BMP180;6062;47.294;12.182;2022-12-16T12:24:47;78969.00;;;5.30
12007;BMP180;6062;47.294;12.182;2022-12-16T12:30:48;78961.00;;;5.50
12007;BMP180;6062;47.294;12.182;2022-12-16T12:34:08;78968.00;;;5.60
12007;BMP180;6062;47.294;12.182;2022-12-16T12:37:22;78973.00;;;5.70
12007;BMP180;6062;47.294;12.182;2022-12-16T12:44:05;78980.00;;;5.70
12007;BMP180;6062;47.294;12.182;2022-12-16T12:46:59;78988.00;;;5.80
12007;BMP180;6062;47.294;12.182;2022-12-16T12:56:36;78995.00;;;5.90
12007;BMP180;6062;47.294;12.182;2022-12-16T12:59:40;78990.00;;;5.90
12007;BMP180;6062;47.294;12.182;2022-12-16T13:03:23;78994.00;;;5.90
12007;BMP180;6062;47.294;12.182;2022-12-16T13:05:40;78992.00;;;5.90
12007;BMP180;6062;47.294;12.182;2022-12-16T13:08:52;78999.00;;;6.00
12007;BMP180;6062;47.294;12.182;2022-12-16T13:15:37;79001.00;;;6.00
12007;BMP180;6062;47.294;12.182;2022-12-16T13:18:32;79005.00;;;6.00
12007;BMP180;6062;47.294;12.182;2022-12-16T13:24:46;79017.00;;;5.90
12007;BMP180;6062;47.294;12.182;2022-12-16T13:27:53;79006.00;;;5.80
12007;BMP180;6062;47.294;12.182;2022-12-16T13:30:38;79017.00;;;5.60
12007;BMP180;6062;47.294;12.182;2022-12-16T13:33:29;79016.00;;;5.50
12007;BMP180;6062;47.294;12.182;2022-12-16T13:36:16;79027.00;;;5.50
12007;BMP180;6062;47.294;12.182;2022-12-16T13:42:04;79031.00;;;5.40
12007;BMP180;6062;47.294;12.182;2022-12-16T13:50:39;79034.00;;;5.30
12007;BMP180;6062;47.294;12.182;2022-12-16T13:53:30;79042.00;;;5.30
12007;BMP180;6062;47.294;12.182;2022-12-16T13:56:33;79046.00;;;5.30
12007;BMP180;6062;47.294;12.182;2022-12-16T13:59:25;79033.00;;;5.30
12007;BMP180;6062;47.294;12.182;2022-12-16T14:02:34;79057.00;;;5.20
12007;BMP180;6062;47.294;12.182;2022-12-16T14:05:30;79054.00;;;5.20
12007;BMP180;6062;47.294;12.182;2022-12-16T14:08:20;79067.00;;;5.10
12007;BMP180;6062;47.294;12.182;2022-12-16T14:14:30;79063.00;;;5.00
12007;BMP180;6062;47.294;12.182;2022-12-16T14:17:36;79076.00;;;5.00
12007;BMP180;6062;47.294;12.182;2022-12-16T14:20:53;79068.00;;;5.00
12007;BMP180;6062;47.294;12.182;2022-12-16T14:24:11;79077.00;;;5.00
12007;BMP180;6062;47.294;12.182;2022-12-16T14:27:16;79081.00;;;4.90
12007;BMP180;6062;47.294;12.182;2022-12-16T14:30:15;79081.00;;;4.90
12007;BMP180;6062;47.294;12.182;2022-12-16T14:32:59;79086.00;;;4.90
12007;BMP180;6062;47.294;12.182;2022-12-16T14:35:50;79097.00;;;4.90
12007;BMP180;6062;47.294;12.182;2022-12-16T14:38:34;79088.00;;;4.90
12007;BMP180;6062;47.294;12.182;2022-12-16T14:41:23;79089.00;;;4.90
12007;BMP180;6062;47.294;12.182;2022-12-16T14:44:24;79091.00;;;4.90
12007;BMP180;6062;47.294;12.182;2022-12-16T14:47:17;79100.00;;;4.90
12007;BMP180;6062;47.294;12.182;2022-12-16T14:50:03;79098.00;;;4.90
12007;BMP180;6062;47.294;12.182;2022-12-16T14:53:13;79101.00;;;4.90
12007;BMP180;6062;47.294;12.182;2022-12-16T14:56:20;79103.00;;;4.90
12007;BMP180;6062;47.294;12.182;2022-12-16T14:59:13;79101.00;;;4.90
12007;BMP180;6062;47.294;12.182;2022-12-16T15:02:24;79101.00;;;4.80
12007;BMP180;6062;47.294;12.182;2022-12-16T15:05:18;79108.00;;;4.80
12007;BMP180;6062;47.294;12.182;2022-12-16T15:08:04;79104.00;;;4.80
12007;BMP180;6062;47.294;12.182;2022-12-16T15:10:48;79109.00;;;4.70
12007;BMP180;6062;47.294;12.182;2022-12-16T15:13:34;79121.00;;;4.70
12007;BMP180;6062;47.294;12.182;2022-12-16T15:16:36;79107.00;;;4.70
12007;BMP180;6062;47.294;12.182;2022-12-16T15:19:22;79118.00;;;4.60
12007;BMP180;6062;47.294;12.182;2022-12-16T15:22:15;79116.00;;;4.60
12007;BMP180;6062;47.294;12.182;2022-12-16T15:25:01;79118.00;;;4.50
12007;BMP180;6062;47.294;12.182;2022-12-16T15:27:55;79117.00;;;4.50
12007;BMP180;6062;47.294;12.182;2022-12-16T15:30:45;79125.00;;;4.40
12007;BMP180;6062;47.294;12.182;2022-12-16T15:33:36;79125.00;;;4.40
12007;BMP180;6062;47.294;12.182;2022-12-16T15:36:28;79132.00;;;4.30
12007;BMP180;6062;47.294;12.182;2022-12-16T15:42:35;79140.00;;;4.10
12007;BMP180;6062;47.294;12.182;2022-12-16T15:45:30;79138.00;;;4.10
12007;BMP180;6062;47.294;12.182;2022-12-16T15:48:28;79143.00;;;4.10
12007;BMP180;6062;47.294;12.182;2022-12-16T15:51:40;79141.00;;;4.00
12007;BMP180;6062;47.294;12.182;2022-12-16T15:54:24;79151.00;;;4.00
12007;BMP180;6062;47.294;12.182;2022-12-16T15:57:31;79148.00;;;3.90
12007;BMP180;6062;47.294;12.182;2022-12-16T16:00:30;79141.00;;;3.90
12007;BMP180;6062;47.294;12.182;2022-12-16T16:03:36;79155.00;;;3.80
12007;BMP180;6062;47.294;12.182;2022-12-16T16:06:24;79150.00;;;3.80
12007;BMP180;6062;47.294;12.182;2022-12-16T16:09:22;79149.00;;;3.70
12007;BMP180;6062;47.294;12.182;2022-12-16T16:12:09;79144.00;;;3.70
12007;BMP180;6062;47.294;12.182;2022-12-16T16:14:54;79145.00;;;3.70
12007;BMP180;6062;47.294;12.182;2022-12-16T16:17:38;79160.00;;;3.70
12007;BMP180;6062;47.294;12.182;2022-12-16T16:20:23;79164.00;;;3.70
12007;BMP180;6062;47.294;12.182;2022-12-16T16:23:09;79167.00;;;3.60
12007;BMP180;6062;47.294;12.182;2022-12-16T16:25:54;79159.00;;;3.60
12007;BMP180;6062;47.294;12.182;2022-12-16T16:28:39;79171.00;;;3.50
12007;BMP180;6062;47.294;12.182;2022-12-16T16:31:23;79162.00;;;3.30
12007;BMP180;6062;47.294;12.182;2022-12-16T16:34:08;79173.00;;;3.20
12007;BMP180;6062;47.294;12.182;2022-12-16T16:36:55;79160.00;;;3.10
12007;BMP180;6062;47.294;12.182;2022-12-16T16:39:41;79175.00;;;3.10
12007;BMP180;6062;47.294;12.182;2022-12-16T16:42:25;79175.00;;;3.10
12007;BMP180;6062;47.294;12.182;2022-12-16T16:45:10;79176.00;;;3.10
12007;BMP180;6062;47.294;12.182;2022-12-16T16:48:05;79175.00;;;3.00
12007;BMP180;6062;47.294;12.182;2022-12-16T16:50:56;79181.00;;;2.90
12007;BMP180;6062;47.294;12.182;2022-12-16T16:53:41;79186.00;;;2.90
12007;BMP180;6062;47.294;12.182;2022-12-16T16:56:26;79195.00;;;2.80
12007;BMP180;6062;47.294;12.182;2022-12-16T16:59:12;79186.00;;;2.70
12007;BMP180;6062;47.294;12.182;2022-12-16T17:01:56;79185.00;;;2.60
12007;BMP180;6062;47.294;12.182;2022-12-16T17:04:40;79186.00;;;2.50
12007;BMP180;6062;47.294;12.182;2022-12-16T17:07:24;79197.00;;;2.40
12007;BMP180;6062;47.294;12.182;2022-12-16T17:10:09;79185.00;;;2.40
12007;BMP180;6062;47.294;12.182;2022-12-16T17:12:53;79197.00;;;2.40
12007;BMP180;6062;47.294;12.182;2022-12-16T17:15:38;79206.00;;;2.40
12007;BMP180;6062;47.294;12.182;2022-12-16T17:18:22;79209.00;;;2.30
12007;BMP180;6062;47.294;12.182;2022-12-16T17:21:06;79210.00;;;2.20
12007;BMP180;6062;47.294;12.182;2022-12-16T17:23:51;79208.00;;;2.10